createdAt,value
2019-05-14T00:01:42.272Z,98.10
2019-05-14T00:04:11.621Z,98.00
2019-05-14T00:06:41.843Z,97.90
2019-05-14T00:09:12.165Z,98.10
2019-05-14T00:11:42.102Z,98.00
2019-05-14T00:14:11.716Z,98.10
2019-05-14T00:16:42.365Z,98.10
2019-05-14T00:19:11.563Z,98.30
2019-05-14T00:21:42.417Z,98.30
2019-05-14T00:24:11.512Z,98.30
2019-05-14T00:26:42.690Z,98.40
2019-05-14T00:29:11.567Z,98.50
2019-05-14T00:31:42.416Z,98.60
2019-05-14T00:34:11.356Z,99.00
2019-05-14T00:36:41.732Z,98.90
2019-05-14T00:39:11.353Z,99.10
2019-05-14T00:41:42.053Z,99.30
2019-05-14T00:44:13.344Z,99.50
2019-05-14T00:46:41.806Z,99.60
2019-05-14T00:49:11.858Z,99.80
2019-05-14T00:51:41.364Z,99.90
2019-05-14T00:54:11.228Z,99.80
2019-05-14T00:56:41.712Z,99.90
2019-05-14T00:59:11.443Z,99.90
2019-05-14T01:01:42.558Z,99.90
2019-05-14T01:04:11.835Z,99.90
2019-05-14T01:06:42.076Z,99.70
2019-05-14T01:09:11.527Z,99.90
2019-05-14T01:11:41.991Z,99.90
2019-05-14T01:14:12.225Z,99.90
2019-05-14T01:16:42.480Z,99.90
2019-05-14T01:19:12.425Z,99.90
2019-05-14T01:21:41.816Z,99.90
2019-05-14T01:24:12.589Z,99.90
2019-05-14T01:26:41.790Z,99.90
2019-05-14T01:29:11.904Z,99.90
2019-05-14T01:31:41.734Z,99.90
2019-05-14T01:34:11.287Z,99.90
2019-05-14T01:36:41.473Z,99.90
2019-05-14T01:39:12.148Z,99.90
2019-05-14T01:41:42.259Z,99.90
2019-05-14T01:44:12.064Z,99.90
2019-05-14T01:46:42.068Z,99.90
2019-05-14T01:49:12.119Z,99.90
2019-05-14T01:51:42.306Z,99.90
2019-05-14T01:54:11.917Z,99.90
2019-05-14T01:56:42.370Z,99.90
2019-05-14T01:59:12.093Z,99.90
2019-05-14T02:01:41.714Z,99.90
2019-05-14T02:04:11.641Z,99.90
2019-05-14T02:06:41.452Z,99.90
2019-05-14T02:09:11.130Z,99.90
2019-05-14T02:11:41.490Z,99.90
2019-05-14T02:14:11.620Z,99.90
2019-05-14T02:16:42.260Z,99.90
2019-05-14T02:19:11.722Z,99.90
2019-05-14T02:21:42.492Z,99.90
2019-05-14T02:24:11.508Z,99.90
2019-05-14T02:26:42.446Z,99.90
2019-05-14T02:29:12.465Z,99.90
2019-05-14T02:31:41.706Z,99.90
2019-05-14T02:34:10.699Z,99.90
2019-05-14T02:36:40.187Z,99.90
2019-05-14T02:39:10.371Z,99.90
2019-05-14T02:41:39.606Z,99.90
2019-05-14T02:44:09.904Z,99.90
2019-05-14T02:46:40.535Z,99.90
2019-05-14T02:49:10.686Z,99.90
2019-05-14T02:51:39.743Z,99.90
2019-05-14T02:54:09.860Z,99.90
2019-05-14T02:56:40.294Z,99.90
2019-05-14T02:59:10.084Z,99.90
2019-05-14T03:01:40.404Z,99.90
2019-05-14T03:04:10.277Z,99.90
2019-05-14T03:06:39.690Z,99.90
2019-05-14T03:09:09.613Z,99.90
2019-05-14T03:11:40.342Z,99.90
2019-05-14T03:14:09.723Z,99.90
2019-05-14T03:16:40.259Z,99.90
2019-05-14T03:19:10.119Z,99.90
2019-05-14T03:21:39.724Z,99.90
2019-05-14T03:24:09.613Z,99.90
2019-05-14T03:26:39.780Z,99.90
2019-05-14T03:29:10.071Z,99.90
2019-05-14T03:31:42.473Z,99.90
2019-05-14T03:34:13.346Z,99.90
2019-05-14T03:36:42.870Z,99.90
2019-05-14T03:39:12.059Z,99.90
2019-05-14T03:41:41.114Z,99.90
2019-05-14T03:44:10.273Z,99.90
2019-05-14T03:46:49.762Z,99.90
2019-05-14T03:49:10.249Z,99.90
2019-05-14T03:51:39.569Z,99.90
2019-05-14T03:54:12.716Z,99.90
2019-05-14T03:56:39.776Z,99.90
2019-05-14T03:59:09.786Z,99.90
2019-05-14T04:01:40.256Z,99.90
2019-05-14T04:04:10.418Z,99.90
2019-05-14T04:06:41.775Z,99.90
2019-05-14T04:09:13.695Z,99.90
2019-05-14T04:11:45.064Z,99.90
2019-05-14T04:14:19.848Z,99.90
2019-05-14T04:17:01.592Z,99.90
2019-05-14T04:19:24.130Z,99.90
2019-05-14T04:21:55.384Z,99.90
2019-05-14T04:24:29.529Z,99.90
2019-05-14T04:27:07.308Z,99.90
2019-05-14T04:29:34.031Z,99.90
2019-05-14T04:32:04.238Z,99.90
2019-05-14T04:34:33.627Z,99.40
2019-05-14T04:37:02.777Z,98.90
2019-05-14T04:39:31.852Z,98.70
2019-05-14T04:42:00.802Z,98.10
2019-05-14T04:44:30.104Z,96.80
2019-05-14T04:47:00.134Z,95.30
2019-05-14T04:49:30.091Z,92.90
2019-05-14T04:51:59.675Z,91.10
2019-05-14T04:54:30.163Z,89.40
2019-05-14T04:57:00.142Z,84.60
2019-05-14T04:59:30.178Z,79.80
2019-05-14T05:02:00.219Z,77.20
2019-05-14T05:04:30.017Z,73.40
2019-05-14T05:06:59.524Z,70.90
2019-05-14T05:09:29.417Z,66.50
2019-05-14T05:11:59.785Z,63.60
2019-05-14T05:14:29.682Z,59.50
2019-05-14T05:16:59.735Z,59.40
2019-05-14T05:19:29.273Z,60.40
2019-05-14T05:21:58.777Z,60.80
2019-05-14T05:24:28.751Z,61.10
2019-05-14T05:26:58.571Z,62.20
2019-05-14T05:29:28.573Z,66.50
2019-05-14T05:31:59.290Z,73.40
2019-05-14T05:34:28.587Z,79.40
2019-05-14T05:36:59.182Z,84.80
2019-05-14T05:39:28.409Z,88.20
2019-05-14T05:41:58.561Z,90.80
2019-05-14T05:44:28.778Z,92.40
2019-05-14T05:46:59.689Z,93.80
2019-05-14T05:49:29.208Z,94.70
2019-05-14T05:51:59.150Z,94.90
2019-05-14T05:54:29.161Z,95.30
2019-05-14T05:56:58.586Z,95.10
2019-05-14T05:59:29.344Z,95.30
2019-05-14T06:01:58.795Z,95.30
2019-05-14T06:04:29.046Z,95.40
2019-05-14T06:06:59.041Z,95.60
2019-05-14T06:09:28.872Z,96.00
2019-05-14T06:11:59.192Z,96.40
2019-05-14T06:14:29.157Z,96.90
2019-05-14T06:16:59.081Z,96.90
2019-05-14T06:19:28.998Z,97.20
2019-05-14T06:21:59.637Z,97.40
2019-05-14T06:24:28.886Z,97.30
2019-05-14T06:26:58.647Z,97.20
2019-05-14T06:29:29.009Z,97.10
2019-05-14T06:31:58.881Z,96.80
2019-05-14T06:34:29.115Z,96.50
2019-05-14T06:36:59.157Z,96.40
2019-05-14T06:39:28.681Z,96.20
2019-05-14T06:41:58.554Z,96.30
2019-05-14T06:44:29.441Z,95.60
2019-05-14T06:46:59.070Z,95.60
2019-05-14T06:49:28.985Z,95.50
2019-05-14T06:51:59.337Z,95.30
2019-05-14T06:54:29.264Z,95.10
2019-05-14T06:56:58.469Z,94.90
2019-05-14T06:59:28.754Z,95.10
2019-05-14T07:01:58.210Z,95.00
2019-05-14T07:04:28.898Z,95.10
2019-05-14T07:06:59.025Z,95.40
2019-05-14T07:09:28.973Z,95.10
2019-05-14T07:11:58.639Z,95.50
2019-05-14T07:14:28.282Z,95.30
2019-05-14T07:16:58.823Z,94.80
2019-05-14T07:19:29.372Z,95.90
2019-05-14T07:21:58.970Z,95.20
2019-05-14T07:24:28.418Z,94.80
2019-05-14T07:26:58.535Z,95.20
2019-05-14T07:29:29.303Z,94.90
2019-05-14T07:31:58.529Z,94.90
2019-05-14T07:34:28.349Z,94.70
2019-05-14T07:36:58.692Z,94.00
2019-05-14T07:39:29.071Z,94.30
2019-05-14T07:41:59.101Z,94.10
2019-05-14T07:44:29.669Z,92.80
2019-05-14T07:46:59.082Z,92.20
2019-05-14T07:49:29.029Z,92.30
2019-05-14T07:51:58.707Z,91.70
2019-05-14T07:54:28.320Z,91.70
2019-05-14T07:56:59.012Z,91.00
2019-05-14T07:59:28.865Z,91.40
2019-05-14T08:01:58.656Z,91.10
2019-05-14T08:04:28.943Z,91.70
2019-05-14T08:06:58.352Z,90.90
2019-05-14T08:09:28.268Z,91.60
2019-05-14T08:11:58.731Z,90.80
2019-05-14T08:14:29.463Z,90.30
2019-05-14T08:16:59.490Z,90.20
2019-05-14T08:19:31.448Z,86.90
2019-05-14T08:21:59.394Z,84.90
2019-05-14T08:24:30.026Z,85.40
2019-05-14T08:26:59.226Z,82.70
2019-05-14T08:29:28.646Z,83.10
2019-05-14T08:31:58.262Z,83.40
2019-05-14T08:34:29.440Z,79.50
2019-05-14T08:36:58.870Z,73.30
2019-05-14T08:39:28.561Z,77.50
2019-05-14T08:42:03.535Z,79.20
2019-05-14T08:44:29.361Z,79.20
2019-05-14T08:46:59.149Z,77.50
2019-05-14T08:49:39.057Z,79.40
2019-05-14T08:51:59.526Z,80.30
2019-05-14T08:54:28.818Z,78.20
2019-05-14T08:56:58.391Z,78.00
2019-05-14T08:59:28.656Z,77.70
2019-05-14T09:02:05.828Z,75.90
2019-05-14T09:04:30.168Z,75.20
2019-05-14T09:06:59.055Z,75.50
2019-05-14T09:09:29.034Z,76.60
2019-05-14T09:11:59.976Z,77.30
2019-05-14T09:14:29.023Z,74.40
2019-05-14T09:16:59.958Z,74.20
2019-05-14T09:19:28.852Z,72.10
2019-05-14T09:21:58.927Z,72.20
2019-05-14T09:24:29.236Z,69.70
2019-05-14T09:26:59.253Z,72.10
2019-05-14T09:29:29.919Z,70.10
2019-05-14T09:31:59.421Z,71.90
2019-05-14T09:34:29.137Z,65.30
2019-05-14T09:36:59.340Z,67.40
2019-05-14T09:39:29.101Z,67.80
2019-05-14T09:41:58.346Z,67.70
2019-05-14T09:44:29.287Z,62.50
2019-05-14T09:46:59.385Z,64.70
2019-05-14T09:49:29.810Z,62.70
2019-05-14T09:51:58.838Z,65.90
2019-05-14T09:54:28.677Z,65.70
2019-05-14T09:56:59.142Z,65.60
2019-05-14T09:59:28.410Z,64.60
2019-05-14T10:01:58.620Z,63.90
2019-05-14T10:04:27.857Z,66.30
2019-05-14T10:06:59.075Z,66.20
2019-05-14T10:09:28.977Z,66.30
2019-05-14T10:11:58.339Z,66.40
2019-05-14T10:14:29.616Z,68.10
2019-05-14T10:16:58.359Z,64.80
2019-05-14T10:19:29.676Z,65.80
2019-05-14T10:21:58.852Z,66.10
2019-05-14T10:24:29.090Z,66.30
2019-05-14T10:26:58.625Z,65.00
2019-05-14T10:29:28.582Z,64.40
2019-05-14T10:31:59.262Z,66.90
2019-05-14T10:34:28.806Z,65.80
2019-05-14T10:36:59.027Z,63.20
2019-05-14T10:39:29.906Z,66.60
2019-05-14T10:41:59.358Z,66.50
2019-05-14T10:44:29.206Z,66.80
2019-05-14T10:46:58.575Z,59.90
2019-05-14T10:49:29.971Z,57.50
2019-05-14T10:51:58.625Z,58.00
2019-05-14T10:54:29.216Z,56.00
2019-05-14T10:56:59.325Z,55.10
2019-05-14T10:59:29.357Z,59.40
2019-05-14T11:01:58.720Z,57.60
2019-05-14T11:04:28.750Z,56.50
2019-05-14T11:06:57.836Z,55.10
2019-05-14T11:09:28.577Z,55.40
2019-05-14T11:11:58.379Z,55.80
2019-05-14T11:14:31.808Z,56.90
2019-05-14T11:16:59.221Z,53.00
2019-05-14T11:19:28.312Z,47.40
2019-05-14T11:21:57.967Z,47.30
2019-05-14T11:24:29.521Z,47.80
2019-05-14T11:26:59.076Z,47.80
2019-05-14T11:29:29.504Z,50.30
2019-05-14T11:31:58.913Z,51.30
2019-05-14T11:34:28.743Z,51.30
2019-05-14T11:36:59.036Z,51.40
2019-05-14T11:39:28.915Z,47.10
2019-05-14T11:41:59.085Z,48.70
2019-05-14T11:44:28.706Z,50.00
2019-05-14T11:47:02.198Z,49.80
2019-05-14T11:49:28.439Z,48.30
2019-05-14T11:52:07.325Z,48.40
2019-05-14T11:54:29.202Z,50.00
2019-05-14T11:56:58.929Z,48.70
2019-05-14T11:59:28.539Z,47.60
2019-05-14T12:01:59.355Z,47.00
2019-05-14T12:04:28.530Z,48.00
2019-05-14T12:06:59.066Z,47.50
2019-05-14T12:09:28.502Z,46.00
2019-05-14T12:11:58.684Z,46.80
2019-05-14T12:14:27.893Z,46.00
2019-05-14T12:16:59.720Z,47.60
2019-05-14T12:19:28.331Z,47.40
2019-05-14T12:22:06.569Z,48.40
2019-05-14T12:24:29.136Z,48.90
2019-05-14T12:26:58.670Z,49.40
2019-05-14T12:29:29.166Z,50.00
2019-05-14T12:31:58.694Z,46.60
2019-05-14T12:34:29.478Z,45.60
2019-05-14T12:36:58.731Z,45.40
2019-05-14T12:39:29.408Z,47.90
2019-05-14T12:41:58.697Z,46.50
2019-05-14T12:44:29.073Z,45.30
2019-05-14T12:46:58.785Z,43.70
2019-05-14T12:49:27.938Z,45.30
2019-05-14T12:51:59.208Z,47.10
2019-05-14T12:54:46.879Z,49.70
2019-05-14T12:57:18.793Z,49.40
2019-05-14T12:59:48.585Z,48.50
2019-05-14T13:02:18.717Z,49.60
2019-05-14T13:04:48.651Z,50.10
2019-05-14T13:07:19.213Z,51.50
2019-05-14T13:09:49.014Z,50.30
2019-05-14T13:12:19.136Z,49.60
2019-05-14T13:14:48.909Z,48.90
2019-05-14T13:17:18.701Z,49.50
2019-05-14T13:19:48.743Z,47.00
2019-05-14T13:22:25.650Z,46.80
2019-05-14T13:24:49.290Z,47.90
2019-05-14T13:27:19.075Z,46.30
2019-05-14T13:29:48.929Z,46.50
2019-05-14T13:32:19.601Z,46.60
2019-05-14T13:34:48.840Z,46.90
2019-05-14T13:37:17.786Z,47.90
2019-05-14T13:39:52.717Z,50.00
2019-05-14T13:42:18.696Z,49.50
2019-05-14T13:44:47.897Z,49.00
2019-05-14T13:47:18.250Z,48.50
2019-05-14T13:49:48.722Z,47.80
2019-05-14T13:52:18.844Z,46.60
2019-05-14T13:54:48.076Z,46.80
2019-05-14T13:57:19.427Z,46.50
2019-05-14T13:59:49.349Z,49.70
2019-05-14T14:02:19.043Z,47.30
2019-05-14T14:04:48.342Z,48.50
2019-05-14T14:07:18.968Z,45.80
2019-05-14T14:09:49.875Z,47.50
2019-05-14T14:12:18.739Z,45.80
2019-05-14T14:14:49.317Z,46.50
2019-05-14T14:17:18.675Z,44.80
2019-05-14T14:19:48.240Z,45.80
2019-05-14T14:22:19.403Z,46.10
2019-05-14T14:24:48.777Z,47.40
2019-05-14T14:27:19.584Z,48.00
2019-05-14T14:29:49.463Z,48.80
2019-05-14T14:32:19.044Z,50.20
2019-05-14T14:34:48.346Z,48.30
2019-05-14T14:37:19.251Z,49.10
2019-05-14T14:39:48.836Z,49.70
2019-05-14T14:42:19.548Z,47.70
2019-05-14T14:44:48.696Z,47.30
2019-05-14T14:47:19.039Z,45.40
2019-05-14T14:49:51.980Z,46.00
2019-05-14T14:52:19.966Z,47.20
2019-05-14T14:54:49.230Z,45.20
2019-05-14T14:57:19.879Z,46.20
2019-05-14T14:59:48.885Z,45.30
2019-05-14T15:02:19.669Z,45.80
2019-05-14T15:04:49.924Z,47.80
2019-05-14T15:07:19.181Z,48.60
2019-05-14T15:09:48.771Z,50.90
2019-05-14T15:12:19.940Z,49.90
2019-05-14T15:14:48.887Z,50.60
2019-05-14T15:17:18.667Z,49.30
2019-05-14T15:19:49.944Z,45.40
2019-05-14T15:22:20.983Z,44.40
2019-05-14T15:24:49.180Z,45.70
2019-05-14T15:27:18.867Z,44.40
2019-05-14T15:29:48.875Z,46.60
2019-05-14T15:32:19.728Z,46.30
2019-05-14T15:34:50.589Z,46.00
2019-05-14T15:37:19.419Z,46.20
2019-05-14T15:39:49.083Z,45.70
2019-05-14T15:42:19.264Z,45.20
2019-05-14T15:44:55.661Z,46.70
2019-05-14T15:47:19.215Z,47.40
2019-05-14T15:49:49.771Z,45.20
2019-05-14T15:52:19.440Z,43.60
2019-05-14T15:54:50.628Z,44.40
2019-05-14T15:57:19.527Z,45.10
2019-05-14T15:59:48.516Z,45.00
2019-05-14T16:02:20.157Z,45.90
2019-05-14T16:04:48.211Z,44.70
2019-05-14T16:07:18.627Z,46.40
2019-05-14T16:09:49.381Z,45.70
2019-05-14T16:12:19.708Z,45.60
2019-05-14T16:14:49.640Z,46.50
2019-05-14T16:17:25.113Z,46.00
2019-05-14T16:19:49.556Z,46.00
2019-05-14T16:22:19.527Z,44.70
2019-05-14T16:24:56.578Z,44.50
2019-05-14T16:27:19.797Z,43.80
2019-05-14T16:29:49.018Z,44.40
2019-05-14T16:32:18.046Z,44.60
2019-05-14T16:34:48.880Z,45.00
2019-05-14T16:37:18.172Z,45.20
2019-05-14T16:39:48.794Z,45.70
2019-05-14T16:42:20.558Z,45.10
2019-05-14T16:44:48.724Z,45.50
2019-05-14T16:47:18.807Z,44.80
2019-05-14T16:49:48.295Z,44.40
2019-05-14T16:52:18.140Z,45.70
2019-05-14T16:54:48.804Z,43.60
2019-05-14T16:57:18.569Z,44.50
2019-05-14T16:59:49.668Z,43.80
2019-05-14T17:02:19.147Z,43.70
2019-05-14T17:04:48.487Z,44.00
2019-05-14T17:07:18.268Z,44.30
2019-05-14T17:09:49.278Z,43.80
2019-05-14T17:12:22.467Z,44.40
2019-05-14T17:14:48.818Z,44.20
2019-05-14T17:17:19.987Z,42.60
2019-05-14T17:19:48.524Z,43.10
2019-05-14T17:22:25.395Z,43.20
2019-05-14T17:24:49.071Z,45.30
2019-05-14T17:27:18.245Z,44.40
2019-05-14T17:29:48.484Z,44.50
2019-05-14T17:32:18.741Z,45.00
2019-05-14T17:34:49.067Z,44.70
2019-05-14T17:37:19.073Z,45.60
2019-05-14T17:39:48.984Z,45.60
2019-05-14T17:42:19.308Z,46.80
2019-05-14T17:44:48.416Z,46.90
2019-05-14T17:47:18.369Z,46.50
2019-05-14T17:49:48.528Z,47.10
2019-05-14T17:52:21.709Z,46.40
2019-05-14T17:54:51.265Z,45.40
2019-05-14T17:57:24.995Z,46.00
2019-05-14T17:59:50.911Z,46.60
2019-05-14T18:02:19.870Z,46.50
2019-05-14T18:04:48.954Z,46.90
2019-05-14T18:07:19.118Z,46.10
2019-05-14T18:09:48.522Z,46.60
2019-05-14T18:12:18.944Z,46.50
2019-05-14T18:14:48.428Z,46.90
2019-05-14T18:17:18.812Z,47.30
2019-05-14T18:19:48.457Z,46.90
2019-05-14T18:22:19.324Z,47.20
2019-05-14T18:24:48.717Z,46.90
2019-05-14T18:27:19.551Z,47.60
2019-05-14T18:29:48.895Z,47.50
2019-05-14T18:32:19.029Z,48.00
2019-05-14T18:34:48.610Z,48.10
2019-05-14T18:37:18.308Z,49.00
2019-05-14T18:39:48.331Z,49.50
2019-05-14T18:42:19.058Z,49.80
2019-05-14T18:44:49.803Z,50.30
2019-05-14T18:47:20.140Z,50.70
2019-05-14T18:49:49.247Z,51.20
2019-05-14T18:52:18.409Z,52.10
2019-05-14T18:54:48.448Z,52.60
2019-05-14T18:57:18.194Z,53.90
2019-05-14T18:59:49.281Z,54.00
2019-05-14T19:02:18.441Z,54.90
2019-05-14T19:04:48.452Z,56.70
2019-05-14T19:07:18.916Z,57.20
2019-05-14T19:09:49.445Z,55.60
2019-05-14T19:12:19.102Z,56.80
2019-05-14T19:14:49.284Z,58.30
2019-05-14T19:17:18.777Z,57.90
2019-05-14T19:19:48.209Z,58.70
2019-05-14T19:22:17.391Z,60.10
2019-05-14T19:24:46.323Z,61.40
2019-05-14T19:27:15.293Z,62.70
2019-05-14T19:29:44.214Z,63.80
2019-05-14T19:32:13.287Z,63.10
2019-05-14T19:34:42.215Z,64.70
2019-05-14T19:37:11.309Z,65.80
2019-05-14T19:39:40.246Z,67.00
2019-05-14T19:42:09.327Z,68.10
2019-05-14T19:44:40.285Z,68.40
2019-05-14T19:47:08.949Z,69.70
2019-05-14T19:49:38.388Z,68.20
2019-05-14T19:52:08.472Z,70.60
2019-05-14T19:54:38.408Z,69.40
2019-05-14T19:57:09.982Z,70.00
2019-05-14T19:59:38.403Z,70.90
2019-05-14T20:02:09.550Z,71.60
2019-05-14T20:04:38.208Z,72.40
2019-05-14T20:07:08.960Z,72.30
2019-05-14T20:09:38.775Z,73.60
2019-05-14T20:12:08.007Z,73.80
2019-05-14T20:14:38.236Z,74.60
2019-05-14T20:17:08.916Z,75.40
2019-05-14T20:19:39.591Z,75.10
2019-05-14T20:22:08.814Z,75.30
2019-05-14T20:24:41.204Z,75.80
2019-05-14T20:27:11.944Z,76.30
2019-05-14T20:29:39.200Z,75.90
2019-05-14T20:32:08.685Z,76.30
2019-05-14T20:34:37.828Z,77.80
2019-05-14T20:37:08.481Z,78.60
2019-05-14T20:39:39.114Z,78.80
2019-05-14T20:42:09.225Z,79.40
2019-05-14T20:44:38.775Z,79.90
2019-05-14T20:47:09.204Z,80.40
2019-05-14T20:49:38.367Z,81.00
2019-05-14T20:52:08.525Z,81.30
2019-05-14T20:54:37.902Z,80.80
2019-05-14T20:57:22.933Z,81.90
2019-05-14T20:59:38.909Z,80.80
2019-05-14T21:02:08.539Z,82.40
2019-05-14T21:04:37.658Z,81.20
2019-05-14T21:07:08.359Z,82.20
2019-05-14T21:09:38.632Z,81.90
2019-05-14T21:12:08.404Z,83.40
2019-05-14T21:14:41.073Z,83.80
2019-05-14T21:17:08.499Z,85.40
2019-05-14T21:19:38.014Z,85.00
2019-05-14T21:22:08.344Z,85.00
2019-05-14T21:24:39.224Z,84.50
2019-05-14T21:27:09.306Z,85.80
2019-05-14T21:29:38.535Z,83.30
2019-05-14T21:32:08.238Z,84.80
2019-05-14T21:34:38.159Z,85.30
2019-05-14T21:37:09.019Z,86.10
2019-05-14T21:39:40.843Z,84.30
2019-05-14T21:42:10.888Z,87.00
2019-05-14T21:44:39.422Z,87.40
2019-05-14T21:47:08.451Z,88.50
2019-05-14T21:49:39.058Z,89.20
2019-05-14T21:52:09.038Z,89.40
2019-05-14T21:54:39.582Z,89.30
2019-05-14T21:57:11.724Z,87.50
2019-05-14T21:59:39.591Z,87.00
2019-05-14T22:02:09.158Z,85.70
2019-05-14T22:04:38.596Z,89.20
2019-05-14T22:07:09.075Z,88.60
2019-05-14T22:09:41.143Z,88.20
2019-05-14T22:12:08.962Z,87.60
2019-05-14T22:15:04.485Z,88.70
2019-05-14T22:17:33.423Z,90.20
2019-05-14T22:20:02.411Z,89.30
2019-05-14T22:22:31.490Z,90.00
2019-05-14T22:25:00.414Z,90.00
2019-05-14T22:27:29.362Z,90.60
2019-05-14T22:30:02.927Z,90.90
2019-05-14T22:32:31.858Z,89.90
2019-05-14T22:35:00.782Z,90.60
2019-05-14T22:37:29.754Z,90.50
2019-05-14T22:39:59.098Z,90.80
2019-05-14T22:42:28.333Z,90.00
2019-05-14T22:44:58.342Z,90.90
2019-05-14T22:47:27.589Z,91.30
2019-05-14T22:49:59.163Z,90.30
2019-05-14T22:52:28.442Z,91.60
2019-05-14T22:54:58.634Z,90.90
2019-05-14T22:57:30.862Z,90.70
2019-05-14T22:59:58.511Z,91.00
2019-05-14T23:02:28.431Z,90.60
2019-05-14T23:04:58.545Z,90.30
2019-05-14T23:07:27.634Z,90.30
2019-05-14T23:09:58.939Z,90.50
2019-05-14T23:12:28.693Z,90.70
2019-05-14T23:14:58.193Z,90.50
2019-05-14T23:17:28.024Z,91.00
2019-05-14T23:19:58.039Z,91.50
2019-05-14T23:22:29.630Z,91.20
2019-05-14T23:24:59.224Z,92.00
2019-05-14T23:27:29.363Z,92.50
2019-05-14T23:29:58.784Z,92.00
2019-05-14T23:32:29.889Z,92.40
2019-05-14T23:34:58.998Z,92.60
2019-05-14T23:37:29.099Z,92.20
2019-05-14T23:39:59.747Z,91.60
2019-05-14T23:42:28.682Z,92.70
2019-05-14T23:44:58.547Z,93.30
2019-05-14T23:47:28.882Z,93.60
2019-05-14T23:49:58.457Z,93.70
2019-05-14T23:52:29.278Z,93.00
2019-05-14T23:54:58.138Z,92.50
2019-05-14T23:57:28.844Z,93.20
2019-05-14T23:59:58.030Z,93.10
